sensor_id;sensor_type;location;lat;lon;timestamp;P1;durP1;ratioP1;P2;durP2;ratioP2
17604;SDS011;8921;50.964;6.800;2023-04-07T00:01:24;17.83;;;11.57;;
17604;SDS011;8921;50.964;6.800;2023-04-07T00:03:52;24.33;;;11.67;;
17604;SDS011;8921;50.964;6.800;2023-04-07T00:06:20;17.20;;;11.07;;
17604;SDS011;8921;50.964;6.800;2023-04-07T00:08:49;17.40;;;12.27;;
17604;SDS011;8921;50.964;6.800;2023-04-07T00:11:17;15.20;;;11.80;;
17604;SDS011;8921;50.964;6.800;2023-04-07T00:13:45;17.07;;;11.60;;
17604;SDS011;8921;50.964;6.800;2023-04-07T00:16:14;19.83;;;11.57;;
17604;SDS011;8921;50.964;6.800;2023-04-07T00:18:42;14.90;;;11.03;;
17604;SDS011;8921;50.964;6.800;2023-04-07T00:21:10;17.27;;;11.20;;
17604;SDS011;8921;50.964;6.800;2023-04-07T00:23:38;19.90;;;11.77;;
17604;SDS011;8921;50.964;6.800;2023-04-07T00:26:07;14.33;;;10.50;;
17604;SDS011;8921;50.964;6.800;2023-04-07T00:28:35;19.63;;;11.03;;
17604;SDS011;8921;50.964;6.800;2023-04-07T00:31:03;16.17;;;12.67;;
17604;SDS011;8921;50.964;6.800;2023-04-07T00:33:32;18.77;;;11.73;;
17604;SDS011;8921;50.964;6.800;2023-04-07T00:36:00;17.90;;;12.23;;
17604;SDS011;8921;50.964;6.800;2023-04-07T00:38:28;20.57;;;12.17;;
17604;SDS011;8921;50.964;6.800;2023-04-07T00:40:57;18.03;;;12.37;;
17604;SDS011;8921;50.964;6.800;2023-04-07T00:43:25;21.23;;;14.53;;
17604;SDS011;8921;50.964;6.800;2023-04-07T00:45:53;16.97;;;12.10;;
17604;SDS011;8921;50.964;6.800;2023-04-07T00:48:21;18.57;;;11.30;;
17604;SDS011;8921;50.964;6.800;2023-04-07T00:53:24;17.83;;;12.43;;
17604;SDS011;8921;50.964;6.800;2023-04-07T00:55:52;17.30;;;11.80;;
17604;SDS011;8921;50.964;6.800;2023-04-07T00:58:20;18.07;;;12.73;;
17604;SDS011;8921;50.964;6.800;2023-04-07T01:00:50;19.53;;;12.70;;
17604;SDS011;8921;50.964;6.800;2023-04-07T01:03:33;18.90;;;13.00;;
17604;SDS011;8921;50.964;6.800;2023-04-07T01:06:04;21.43;;;12.33;;
17604;SDS011;8921;50.964;6.800;2023-04-07T01:13:50;20.57;;;13.93;;
17604;SDS011;8921;50.964;6.800;2023-04-07T01:16:26;19.70;;;14.30;;
17604;SDS011;8921;50.964;6.800;2023-04-07T01:18:56;17.73;;;12.70;;
17604;SDS011;8921;50.964;6.800;2023-04-07T01:21:24;23.90;;;14.87;;
17604;SDS011;8921;50.964;6.800;2023-04-07T01:23:58;20.27;;;14.90;;
17604;SDS011;8921;50.964;6.800;2023-04-07T01:26:23;22.53;;;14.73;;
17604;SDS011;8921;50.964;6.800;2023-04-07T01:31:34;26.47;;;18.60;;
17604;SDS011;8921;50.964;6.800;2023-04-07T01:34:02;23.47;;;17.03;;
17604;SDS011;8921;50.964;6.800;2023-04-07T01:36:31;26.20;;;17.77;;
17604;SDS011;8921;50.964;6.800;2023-04-07T01:38:59;29.43;;;20.20;;
17604;SDS011;8921;50.964;6.800;2023-04-07T01:41:28;30.83;;;19.47;;
17604;SDS011;8921;50.964;6.800;2023-04-07T01:43:56;32.00;;;20.67;;
17604;SDS011;8921;50.964;6.800;2023-04-07T01:46:24;38.77;;;22.57;;
17604;SDS011;8921;50.964;6.800;2023-04-07T01:48:52;34.10;;;22.00;;
17604;SDS011;8921;50.964;6.800;2023-04-07T01:51:21;34.97;;;23.30;;
17604;SDS011;8921;50.964;6.800;2023-04-07T01:53:49;34.07;;;21.23;;
17604;SDS011;8921;50.964;6.800;2023-04-07T01:56:18;37.07;;;22.47;;
17604;SDS011;8921;50.964;6.800;2023-04-07T01:58:46;40.77;;;22.60;;
17604;SDS011;8921;50.964;6.800;2023-04-07T02:01:14;42.00;;;23.43;;
17604;SDS011;8921;50.964;6.800;2023-04-07T02:03:45;38.10;;;21.97;;
17604;SDS011;8921;50.964;6.800;2023-04-07T02:06:11;40.17;;;24.03;;
17604;SDS011;8921;50.964;6.800;2023-04-07T02:08:41;38.83;;;23.67;;
17604;SDS011;8921;50.964;6.800;2023-04-07T02:11:08;38.93;;;23.90;;
17604;SDS011;8921;50.964;6.800;2023-04-07T02:13:36;44.60;;;22.70;;
17604;SDS011;8921;50.964;6.800;2023-04-07T02:16:05;38.20;;;21.90;;
17604;SDS011;8921;50.964;6.800;2023-04-07T02:18:33;39.10;;;22.80;;
17604;SDS011;8921;50.964;6.800;2023-04-07T02:21:01;43.43;;;24.03;;
17604;SDS011;8921;50.964;6.800;2023-04-07T02:23:29;39.80;;;21.47;;
17604;SDS011;8921;50.964;6.800;2023-04-07T02:25:57;41.47;;;21.67;;
17604;SDS011;8921;50.964;6.800;2023-04-07T02:28:26;34.70;;;20.20;;
17604;SDS011;8921;50.964;6.800;2023-04-07T02:30:54;35.83;;;21.00;;
17604;SDS011;8921;50.964;6.800;2023-04-07T02:33:22;40.87;;;21.70;;
17604;SDS011;8921;50.964;6.800;2023-04-07T02:35:51;42.70;;;23.13;;
17604;SDS011;8921;50.964;6.800;2023-04-07T02:38:19;38.30;;;23.50;;
17604;SDS011;8921;50.964;6.800;2023-04-07T02:40:47;44.17;;;20.90;;
17604;SDS011;8921;50.964;6.800;2023-04-07T02:43:16;39.97;;;22.03;;
17604;SDS011;8921;50.964;6.800;2023-04-07T02:45:44;32.87;;;20.53;;
17604;SDS011;8921;50.964;6.800;2023-04-07T02:48:12;44.23;;;22.27;;
17604;SDS011;8921;50.964;6.800;2023-04-07T02:50:41;43.40;;;22.33;;
17604;SDS011;8921;50.964;6.800;2023-04-07T02:53:09;36.13;;;21.70;;
17604;SDS011;8921;50.964;6.800;2023-04-07T02:55:37;40.93;;;22.20;;
17604;SDS011;8921;50.964;6.800;2023-04-07T02:58:05;40.93;;;22.30;;
17604;SDS011;8921;50.964;6.800;2023-04-07T03:00:34;44.00;;;23.47;;
17604;SDS011;8921;50.964;6.800;2023-04-07T03:03:02;40.83;;;23.40;;
17604;SDS011;8921;50.964;6.800;2023-04-07T03:05:30;45.13;;;24.27;;
17604;SDS011;8921;50.964;6.800;2023-04-07T03:07:59;42.90;;;23.67;;
17604;SDS011;8921;50.964;6.800;2023-04-07T03:10:27;45.80;;;26.33;;
17604;SDS011;8921;50.964;6.800;2023-04-07T03:12:56;45.00;;;22.97;;
17604;SDS011;8921;50.964;6.800;2023-04-07T03:15:24;55.40;;;25.23;;
17604;SDS011;8921;50.964;6.800;2023-04-07T03:17:52;47.20;;;26.97;;
17604;SDS011;8921;50.964;6.800;2023-04-07T03:20:20;38.93;;;22.23;;
17604;SDS011;8921;50.964;6.800;2023-04-07T03:22:49;42.13;;;23.20;;
17604;SDS011;8921;50.964;6.800;2023-04-07T03:25:17;40.03;;;22.33;;
17604;SDS011;8921;50.964;6.800;2023-04-07T03:27:45;37.50;;;21.80;;
17604;SDS011;8921;50.964;6.800;2023-04-07T03:30:14;42.10;;;22.93;;
17604;SDS011;8921;50.964;6.800;2023-04-07T03:32:42;43.53;;;22.80;;
17604;SDS011;8921;50.964;6.800;2023-04-07T03:35:10;37.90;;;21.17;;
17604;SDS011;8921;50.964;6.800;2023-04-07T03:37:39;37.23;;;21.23;;
17604;SDS011;8921;50.964;6.800;2023-04-07T03:40:07;41.70;;;22.20;;
17604;SDS011;8921;50.964;6.800;2023-04-07T03:42:35;34.70;;;21.43;;
17604;SDS011;8921;50.964;6.800;2023-04-07T03:45:04;41.60;;;22.87;;
17604;SDS011;8921;50.964;6.800;2023-04-07T03:47:32;35.90;;;21.10;;
17604;SDS011;8921;50.964;6.800;2023-04-07T03:50:00;44.73;;;23.63;;
17604;SDS011;8921;50.964;6.800;2023-04-07T03:52:29;42.00;;;22.07;;
17604;SDS011;8921;50.964;6.800;2023-04-07T03:54:57;41.93;;;23.93;;
17604;SDS011;8921;50.964;6.800;2023-04-07T03:57:25;40.20;;;23.87;;
17604;SDS011;8921;50.964;6.800;2023-04-07T03:59:54;41.67;;;22.43;;
17604;SDS011;8921;50.964;6.800;2023-04-07T04:02:22;40.07;;;23.13;;
17604;SDS011;8921;50.964;6.800;2023-04-07T04:04:50;42.43;;;23.20;;
17604;SDS011;8921;50.964;6.800;2023-04-07T04:07:19;49.47;;;25.00;;
17604;SDS011;8921;50.964;6.800;2023-04-07T04:09:47;36.50;;;21.37;;
17604;SDS011;8921;50.964;6.800;2023-04-07T04:12:15;39.00;;;21.80;;
17604;SDS011;8921;50.964;6.800;2023-04-07T04:14:44;41.90;;;23.30;;
17604;SDS011;8921;50.964;6.800;2023-04-07T04:17:12;44.67;;;25.60;;
17604;SDS011;8921;50.964;6.800;2023-04-07T04:19:40;39.23;;;24.57;;
17604;SDS011;8921;50.964;6.800;2023-04-07T04:22:09;36.07;;;20.63;;
17604;SDS011;8921;50.964;6.800;2023-04-07T04:24:37;41.10;;;23.10;;
17604;SDS011;8921;50.964;6.800;2023-04-07T04:27:05;44.20;;;25.73;;
17604;SDS011;8921;50.964;6.800;2023-04-07T04:29:33;39.17;;;22.00;;
17604;SDS011;8921;50.964;6.800;2023-04-07T04:32:02;46.10;;;21.40;;
17604;SDS011;8921;50.964;6.800;2023-04-07T04:34:30;37.73;;;22.90;;
17604;SDS011;8921;50.964;6.800;2023-04-07T04:36:58;43.67;;;22.60;;
17604;SDS011;8921;50.964;6.800;2023-04-07T04:39:27;41.17;;;21.80;;
17604;SDS011;8921;50.964;6.800;2023-04-07T04:41:55;36.07;;;20.73;;
17604;SDS011;8921;50.964;6.800;2023-04-07T04:44:23;36.20;;;19.67;;
17604;SDS011;8921;50.964;6.800;2023-04-07T04:46:52;35.90;;;19.07;;
17604;SDS011;8921;50.964;6.800;2023-04-07T04:49:20;35.00;;;21.20;;
17604;SDS011;8921;50.964;6.800;2023-04-07T04:51:48;33.07;;;18.60;;
17604;SDS011;8921;50.964;6.800;2023-04-07T04:54:17;30.23;;;18.40;;
17604;SDS011;8921;50.964;6.800;2023-04-07T04:56:45;25.67;;;16.13;;
17604;SDS011;8921;50.964;6.800;2023-04-07T04:59:13;31.93;;;17.97;;
17604;SDS011;8921;50.964;6.800;2023-04-07T05:01:41;29.53;;;16.70;;
17604;SDS011;8921;50.964;6.800;2023-04-07T05:04:10;30.40;;;17.80;;
17604;SDS011;8921;50.964;6.800;2023-04-07T05:06:38;30.17;;;17.10;;
17604;SDS011;8921;50.964;6.800;2023-04-07T05:09:06;61.60;;;33.17;;
17604;SDS011;8921;50.964;6.800;2023-04-07T05:11:35;27.00;;;16.37;;
17604;SDS011;8921;50.964;6.800;2023-04-07T05:14:03;23.23;;;14.70;;
17604;SDS011;8921;50.964;6.800;2023-04-07T05:16:31;22.90;;;13.90;;
17604;SDS011;8921;50.964;6.800;2023-04-07T05:19:00;31.43;;;15.37;;
17604;SDS011;8921;50.964;6.800;2023-04-07T05:21:28;24.10;;;15.47;;
17604;SDS011;8921;50.964;6.800;2023-04-07T05:23:56;26.00;;;15.47;;
17604;SDS011;8921;50.964;6.800;2023-04-07T05:26:24;20.80;;;13.80;;
17604;SDS011;8921;50.964;6.800;2023-04-07T05:28:53;22.77;;;13.70;;
17604;SDS011;8921;50.964;6.800;2023-04-07T05:31:21;26.00;;;14.40;;
17604;SDS011;8921;50.964;6.800;2023-04-07T05:33:49;20.83;;;11.93;;
17604;SDS011;8921;50.964;6.800;2023-04-07T05:36:18;21.50;;;13.10;;
17604;SDS011;8921;50.964;6.800;2023-04-07T05:38:46;23.90;;;13.70;;
17604;SDS011;8921;50.964;6.800;2023-04-07T05:41:14;19.63;;;13.27;;
17604;SDS011;8921;50.964;6.800;2023-04-07T05:43:43;23.73;;;12.83;;
17604;SDS011;8921;50.964;6.800;2023-04-07T05:46:11;21.90;;;12.00;;
17604;SDS011;8921;50.964;6.800;2023-04-07T05:48:39;20.90;;;12.73;;
17604;SDS011;8921;50.964;6.800;2023-04-07T05:51:07;23.07;;;11.63;;
17604;SDS011;8921;50.964;6.800;2023-04-07T05:53:36;20.40;;;11.40;;
17604;SDS011;8921;50.964;6.800;2023-04-07T05:56:04;21.00;;;11.60;;
17604;SDS011;8921;50.964;6.800;2023-04-07T05:58:32;19.63;;;11.60;;
17604;SDS011;8921;50.964;6.800;2023-04-07T06:01:01;23.60;;;12.47;;
17604;SDS011;8921;50.964;6.800;2023-04-07T06:03:29;16.87;;;11.00;;
17604;SDS011;8921;50.964;6.800;2023-04-07T06:05:57;14.40;;;8.77;;
17604;SDS011;8921;50.964;6.800;2023-04-07T06:08:26;17.90;;;10.10;;
17604;SDS011;8921;50.964;6.800;2023-04-07T06:10:54;18.37;;;9.90;;
17604;SDS011;8921;50.964;6.800;2023-04-07T06:13:22;15.90;;;8.70;;
17604;SDS011;8921;50.964;6.800;2023-04-07T06:15:50;12.30;;;8.07;;
17604;SDS011;8921;50.964;6.800;2023-04-07T06:18:19;15.33;;;8.07;;
17604;SDS011;8921;50.964;6.800;2023-04-07T06:20:47;15.03;;;8.90;;
17604;SDS011;8921;50.964;6.800;2023-04-07T06:23:15;14.00;;;7.63;;
17604;SDS011;8921;50.964;6.800;2023-04-07T06:25:44;13.00;;;8.30;;
17604;SDS011;8921;50.964;6.800;2023-04-07T06:28:12;13.67;;;8.23;;
17604;SDS011;8921;50.964;6.800;2023-04-07T06:30:40;16.53;;;9.70;;
17604;SDS011;8921;50.964;6.800;2023-04-07T06:33:09;15.27;;;7.97;;
17604;SDS011;8921;50.964;6.800;2023-04-07T06:35:38;16.70;;;8.30;;
17604;SDS011;8921;50.964;6.800;2023-04-07T06:38:05;14.63;;;8.50;;
17604;SDS011;8921;50.964;6.800;2023-04-07T06:40:33;15.30;;;8.90;;
17604;SDS011;8921;50.964;6.800;2023-04-07T06:43:02;14.83;;;8.20;;
17604;SDS011;8921;50.964;6.800;2023-04-07T06:45:30;12.50;;;8.00;;
17604;SDS011;8921;50.964;6.800;2023-04-07T06:47:58;17.27;;;9.87;;
17604;SDS011;8921;50.964;6.800;2023-04-07T06:50:27;12.80;;;8.40;;
17604;SDS011;8921;50.964;6.800;2023-04-07T06:52:55;15.67;;;8.77;;
17604;SDS011;8921;50.964;6.800;2023-04-07T06:55:23;16.23;;;9.20;;
17604;SDS011;8921;50.964;6.800;2023-04-07T06:57:52;17.20;;;8.43;;
17604;SDS011;8921;50.964;6.800;2023-04-07T07:00:20;17.20;;;10.00;;
17604;SDS011;8921;50.964;6.800;2023-04-07T07:02:49;19.13;;;8.77;;
17604;SDS011;8921;50.964;6.800;2023-04-07T07:05:17;16.10;;;10.30;;
17604;SDS011;8921;50.964;6.800;2023-04-07T07:07:45;21.33;;;9.97;;
17604;SDS011;8921;50.964;6.800;2023-04-07T07:10:14;17.10;;;8.33;;
17604;SDS011;8921;50.964;6.800;2023-04-07T07:12:42;14.50;;;8.00;;
17604;SDS011;8921;50.964;6.800;2023-04-07T07:15:10;16.20;;;8.53;;
17604;SDS011;8921;50.964;6.800;2023-04-07T07:17:39;15.07;;;8.07;;
17604;SDS011;8921;50.964;6.800;2023-04-07T07:20:07;13.83;;;8.17;;
17604;SDS011;8921;50.964;6.800;2023-04-07T07:22:36;14.13;;;7.87;;
17604;SDS011;8921;50.964;6.800;2023-04-07T07:25:04;14.30;;;6.60;;
17604;SDS011;8921;50.964;6.800;2023-04-07T07:27:32;12.70;;;7.60;;
17604;SDS011;8921;50.964;6.800;2023-04-07T07:30:01;14.03;;;7.40;;
17604;SDS011;8921;50.964;6.800;2023-04-07T07:32:29;18.73;;;10.23;;
17604;SDS011;8921;50.964;6.800;2023-04-07T07:34:57;13.30;;;6.97;;
17604;SDS011;8921;50.964;6.800;2023-04-07T07:37:25;13.57;;;7.67;;
17604;SDS011;8921;50.964;6.800;2023-04-07T07:39:54;13.83;;;7.50;;
17604;SDS011;8921;50.964;6.800;2023-04-07T07:42:22;15.20;;;7.67;;
17604;SDS011;8921;50.964;6.800;2023-04-07T07:44:50;12.37;;;6.10;;
17604;SDS011;8921;50.964;6.800;2023-04-07T07:47:19;17.93;;;7.67;;
17604;SDS011;8921;50.964;6.800;2023-04-07T07:49:47;13.67;;;7.57;;
17604;SDS011;8921;50.964;6.800;2023-04-07T07:52:15;18.43;;;8.37;;
17604;SDS011;8921;50.964;6.800;2023-04-07T07:54:44;14.23;;;7.00;;
17604;SDS011;8921;50.964;6.800;2023-04-07T07:57:12;14.37;;;7.40;;
17604;SDS011;8921;50.964;6.800;2023-04-07T07:59:40;17.93;;;6.60;;
17604;SDS011;8921;50.964;6.800;2023-04-07T08:02:09;14.70;;;7.00;;
17604;SDS011;8921;50.964;6.800;2023-04-07T08:04:37;12.73;;;7.00;;
17604;SDS011;8921;50.964;6.800;2023-04-07T08:07:05;12.90;;;6.33;;
17604;SDS011;8921;50.964;6.800;2023-04-07T08:09:33;14.00;;;7.80;;
17604;SDS011;8921;50.964;6.800;2023-04-07T08:12:02;13.10;;;6.70;;
17604;SDS011;8921;50.964;6.800;2023-04-07T08:14:30;11.20;;;6.57;;
17604;SDS011;8921;50.964;6.800;2023-04-07T08:16:58;13.50;;;6.70;;
17604;SDS011;8921;50.964;6.800;2023-04-07T08:19:27;12.43;;;6.87;;
17604;SDS011;8921;50.964;6.800;2023-04-07T08:21:55;12.97;;;6.63;;
17604;SDS011;8921;50.964;6.800;2023-04-07T08:24:23;11.57;;;5.63;;
17604;SDS011;8921;50.964;6.800;2023-04-07T08:26:52;11.37;;;6.67;;
17604;SDS011;8921;50.964;6.800;2023-04-07T08:29:20;15.53;;;7.70;;
17604;SDS011;8921;50.964;6.800;2023-04-07T08:31:48;12.57;;;5.87;;
17604;SDS011;8921;50.964;6.800;2023-04-07T08:34:17;12.77;;;6.37;;
17604;SDS011;8921;50.964;6.800;2023-04-07T08:36:45;13.70;;;7.07;;
17604;SDS011;8921;50.964;6.800;2023-04-07T08:39:13;10.10;;;5.40;;
17604;SDS011;8921;50.964;6.800;2023-04-07T08:41:42;18.87;;;7.97;;
17604;SDS011;8921;50.964;6.800;2023-04-07T08:44:10;10.90;;;5.60;;
17604;SDS011;8921;50.964;6.800;2023-04-07T08:46:38;16.17;;;7.43;;
17604;SDS011;8921;50.964;6.800;2023-04-07T08:49:07;20.07;;;8.13;;
17604;SDS011;8921;50.964;6.800;2023-04-07T08:51:36;10.43;;;6.17;;
17604;SDS011;8921;50.964;6.800;2023-04-07T08:54:09;9.87;;;6.00;;
17604;SDS011;8921;50.964;6.800;2023-04-07T08:56:38;14.10;;;6.00;;
17604;SDS011;8921;50.964;6.800;2023-04-07T08:59:06;12.43;;;6.33;;
17604;SDS011;8921;50.964;6.800;2023-04-07T09:01:34;14.57;;;5.87;;
17604;SDS011;8921;50.964;6.800;2023-04-07T09:04:03;10.63;;;6.33;;
17604;SDS011;8921;50.964;6.800;2023-04-07T09:06:31;12.13;;;6.13;;
17604;SDS011;8921;50.964;6.800;2023-04-07T09:08:59;11.90;;;5.73;;
17604;SDS011;8921;50.964;6.800;2023-04-07T09:11:28;11.10;;;5.17;;
17604;SDS011;8921;50.964;6.800;2023-04-07T09:13:56;15.17;;;6.97;;
17604;SDS011;8921;50.964;6.800;2023-04-07T09:16:24;11.03;;;6.23;;
17604;SDS011;8921;50.964;6.800;2023-04-07T09:18:52;15.40;;;6.37;;
17604;SDS011;8921;50.964;6.800;2023-04-07T09:21:20;11.23;;;7.00;;
17604;SDS011;8921;50.964;6.800;2023-04-07T09:23:49;10.33;;;6.10;;
17604;SDS011;8921;50.964;6.800;2023-04-07T09:28:46;12.07;;;6.30;;
17604;SDS011;8921;50.964;6.800;2023-04-07T09:31:14;13.03;;;7.17;;
17604;SDS011;8921;50.964;6.800;2023-04-07T09:33:42;13.07;;;7.90;;
17604;SDS011;8921;50.964;6.800;2023-04-07T09:36:10;14.60;;;7.70;;
17604;SDS011;8921;50.964;6.800;2023-04-07T09:38:39;11.33;;;6.60;;
17604;SDS011;8921;50.964;6.800;2023-04-07T09:41:10;12.20;;;7.70;;
17604;SDS011;8921;50.964;6.800;2023-04-07T09:43:39;16.53;;;8.23;;
17604;SDS011;8921;50.964;6.800;2023-04-07T09:46:10;17.33;;;11.13;;
17604;SDS011;8921;50.964;6.800;2023-04-07T09:48:37;15.53;;;8.23;;
17604;SDS011;8921;50.964;6.800;2023-04-07T09:51:12;19.03;;;10.00;;
17604;SDS011;8921;50.964;6.800;2023-04-07T09:53:49;16.73;;;8.40;;
17604;SDS011;8921;50.964;6.800;2023-04-07T09:56:11;15.70;;;9.83;;
17604;SDS011;8921;50.964;6.800;2023-04-07T09:58:37;16.80;;;10.07;;
17604;SDS011;8921;50.964;6.800;2023-04-07T10:01:05;19.90;;;11.53;;
17604;SDS011;8921;50.964;6.800;2023-04-07T10:03:33;23.07;;;12.63;;
17604;SDS011;8921;50.964;6.800;2023-04-07T10:06:01;20.03;;;11.87;;
17604;SDS011;8921;50.964;6.800;2023-04-07T10:08:30;19.53;;;11.93;;
17604;SDS011;8921;50.964;6.800;2023-04-07T10:10:58;25.47;;;12.40;;
17604;SDS011;8921;50.964;6.800;2023-04-07T10:13:26;25.10;;;13.00;;
17604;SDS011;8921;50.964;6.800;2023-04-07T10:15:54;21.40;;;15.00;;
17604;SDS011;8921;50.964;6.800;2023-04-07T10:18:24;17.93;;;10.70;;
17604;SDS011;8921;50.964;6.800;2023-04-07T10:20:51;20.03;;;10.13;;
17604;SDS011;8921;50.964;6.800;2023-04-07T10:25:48;19.27;;;10.73;;
17604;SDS011;8921;50.964;6.800;2023-04-07T10:28:16;20.63;;;10.57;;
17604;SDS011;8921;50.964;6.800;2023-04-07T10:30:44;17.83;;;10.97;;
17604;SDS011;8921;50.964;6.800;2023-04-07T10:33:12;18.70;;;10.33;;
17604;SDS011;8921;50.964;6.800;2023-04-07T10:38:34;18.70;;;10.07;;
17604;SDS011;8921;50.964;6.800;2023-04-07T10:43:52;20.70;;;10.03;;
17604;SDS011;8921;50.964;6.800;2023-04-07T10:46:20;21.37;;;9.87;;
17604;SDS011;8921;50.964;6.800;2023-04-07T10:49:06;18.90;;;10.00;;
17604;SDS011;8921;50.964;6.800;2023-04-07T10:51:35;19.13;;;10.00;;
17604;SDS011;8921;50.964;6.800;2023-04-07T10:54:15;17.57;;;10.13;;
17604;SDS011;8921;50.964;6.800;2023-04-07T10:59:30;21.77;;;11.30;;
17604;SDS011;8921;50.964;6.800;2023-04-07T11:04:43;26.50;;;12.50;;
17604;SDS011;8921;50.964;6.800;2023-04-07T11:07:10;23.83;;;10.43;;
17604;SDS011;8921;50.964;6.800;2023-04-07T11:09:39;16.63;;;9.63;;
17604;SDS011;8921;50.964;6.800;2023-04-07T11:12:06;19.80;;;10.70;;
17604;SDS011;8921;50.964;6.800;2023-04-07T11:14:34;15.23;;;8.70;;
17604;SDS011;8921;50.964;6.800;2023-04-07T11:17:03;16.07;;;9.00;;
17604;SDS011;8921;50.964;6.800;2023-04-07T11:19:41;19.33;;;9.20;;
17604;SDS011;8921;50.964;6.800;2023-04-07T11:22:15;17.20;;;9.20;;
17604;SDS011;8921;50.964;6.800;2023-04-07T11:24:44;25.23;;;10.60;;
17604;SDS011;8921;50.964;6.800;2023-04-07T11:27:11;19.30;;;9.70;;
17604;SDS011;8921;50.964;6.800;2023-04-07T11:29:39;23.73;;;11.77;;
17604;SDS011;8921;50.964;6.800;2023-04-07T11:32:08;17.83;;;9.53;;
17604;SDS011;8921;50.964;6.800;2023-04-07T11:34:36;16.63;;;8.90;;
17604;SDS011;8921;50.964;6.800;2023-04-07T11:37:23;18.83;;;8.93;;
17604;SDS011;8921;50.964;6.800;2023-04-07T11:39:53;16.53;;;9.10;;
17604;SDS011;8921;50.964;6.800;2023-04-07T11:44:59;15.13;;;8.77;;
17604;SDS011;8921;50.964;6.800;2023-04-07T11:47:34;22.10;;;10.13;;
17604;SDS011;8921;50.964;6.800;2023-04-07T11:50:05;17.73;;;9.57;;
17604;SDS011;8921;50.964;6.800;2023-04-07T11:52:42;19.60;;;10.60;;
17604;SDS011;8921;50.964;6.800;2023-04-07T11:55:15;17.90;;;9.07;;
17604;SDS011;8921;50.964;6.800;2023-04-07T11:57:48;17.90;;;10.07;;
17604;SDS011;8921;50.964;6.800;2023-04-07T12:00:16;18.77;;;9.50;;
17604;SDS011;8921;50.964;6.800;2023-04-07T12:02:44;16.13;;;9.70;;
17604;SDS011;8921;50.964;6.800;2023-04-07T12:05:13;18.03;;;10.40;;
17604;SDS011;8921;50.964;6.800;2023-04-07T12:07:51;15.90;;;8.87;;
17604;SDS011;8921;50.964;6.800;2023-04-07T12:12:50;17.60;;;9.00;;
17604;SDS011;8921;50.964;6.800;2023-04-07T12:15:18;16.63;;;8.23;;
17604;SDS011;8921;50.964;6.800;2023-04-07T12:17:47;15.23;;;9.33;;
17604;SDS011;8921;50.964;6.800;2023-04-07T12:20:15;16.63;;;9.53;;
17604;SDS011;8921;50.964;6.800;2023-04-07T12:22:43;14.00;;;8.73;;
17604;SDS011;8921;50.964;6.800;2023-04-07T12:25:11;14.13;;;8.77;;
17604;SDS011;8921;50.964;6.800;2023-04-07T12:27:40;15.93;;;8.90;;
17604;SDS011;8921;50.964;6.800;2023-04-07T12:30:08;21.47;;;12.60;;
17604;SDS011;8921;50.964;6.800;2023-04-07T12:32:36;20.80;;;12.37;;
17604;SDS011;8921;50.964;6.800;2023-04-07T12:35:05;26.23;;;12.30;;
17604;SDS011;8921;50.964;6.800;2023-04-07T12:37:33;21.83;;;11.93;;
17604;SDS011;8921;50.964;6.800;2023-04-07T12:40:01;22.90;;;12.63;;
17604;SDS011;8921;50.964;6.800;2023-04-07T12:42:30;23.27;;;11.23;;
17604;SDS011;8921;50.964;6.800;2023-04-07T12:44:58;21.20;;;11.80;;
17604;SDS011;8921;50.964;6.800;2023-04-07T12:47:26;19.70;;;11.20;;
17604;SDS011;8921;50.964;6.800;2023-04-07T12:49:54;23.43;;;12.23;;
17604;SDS011;8921;50.964;6.800;2023-04-07T12:52:23;20.70;;;12.13;;
17604;SDS011;8921;50.964;6.800;2023-04-07T12:54:51;18.17;;;9.47;;
17604;SDS011;8921;50.964;6.800;2023-04-07T12:57:19;21.73;;;10.87;;
17604;SDS011;8921;50.964;6.800;2023-04-07T12:59:48;18.03;;;10.20;;
17604;SDS011;8921;50.964;6.800;2023-04-07T13:02:16;17.00;;;9.63;;
17604;SDS011;8921;50.964;6.800;2023-04-07T13:04:44;17.67;;;11.07;;
17604;SDS011;8921;50.964;6.800;2023-04-07T13:07:13;18.00;;;10.20;;
17604;SDS011;8921;50.964;6.800;2023-04-07T13:09:41;18.33;;;9.83;;
17604;SDS011;8921;50.964;6.800;2023-04-07T13:12:09;20.00;;;10.20;;
17604;SDS011;8921;50.964;6.800;2023-04-07T13:14:38;17.50;;;9.37;;
17604;SDS011;8921;50.964;6.800;2023-04-07T13:17:06;21.57;;;9.90;;
17604;SDS011;8921;50.964;6.800;2023-04-07T13:19:34;15.83;;;9.83;;
17604;SDS011;8921;50.964;6.800;2023-04-07T13:22:02;17.80;;;8.83;;
17604;SDS011;8921;50.964;6.800;2023-04-07T13:24:31;17.57;;;9.97;;
17604;SDS011;8921;50.964;6.800;2023-04-07T13:26:59;16.97;;;8.80;;
17604;SDS011;8921;50.964;6.800;2023-04-07T13:29:27;14.87;;;9.50;;
17604;SDS011;8921;50.964;6.800;2023-04-07T13:32:05;17.00;;;9.37;;
17604;SDS011;8921;50.964;6.800;2023-04-07T13:34:33;17.83;;;9.90;;
17604;SDS011;8921;50.964;6.800;2023-04-07T13:37:01;20.70;;;9.80;;
17604;SDS011;8921;50.964;6.800;2023-04-07T13:39:29;16.87;;;8.73;;
17604;SDS011;8921;50.964;6.800;2023-04-07T13:41:58;20.07;;;10.23;;
17604;SDS011;8921;50.964;6.800;2023-04-07T13:44:26;16.03;;;10.23;;
17604;SDS011;8921;50.964;6.800;2023-04-07T13:46:55;17.70;;;10.00;;
17604;SDS011;8921;50.964;6.800;2023-04-07T13:49:22;15.73;;;9.60;;
17604;SDS011;8921;50.964;6.800;2023-04-07T13:51:51;15.87;;;8.63;;
17604;SDS011;8921;50.964;6.800;2023-04-07T13:54:19;19.53;;;10.30;;
17604;SDS011;8921;50.964;6.800;2023-04-07T13:56:47;14.80;;;8.93;;
17604;SDS011;8921;50.964;6.800;2023-04-07T13:59:16;16.60;;;8.53;;
17604;SDS011;8921;50.964;6.800;2023-04-07T14:01:44;17.53;;;9.27;;
17604;SDS011;8921;50.964;6.800;2023-04-07T14:04:12;17.23;;;9.13;;
17604;SDS011;8921;50.964;6.800;2023-04-07T14:06:41;13.90;;;8.50;;
17604;SDS011;8921;50.964;6.800;2023-04-07T14:09:09;11.53;;;8.83;;
17604;SDS011;8921;50.964;6.800;2023-04-07T14:11:37;14.90;;;8.23;;
17604;SDS011;8921;50.964;6.800;2023-04-07T14:14:05;17.33;;;8.87;;
17604;SDS011;8921;50.964;6.800;2023-04-07T14:16:34;14.03;;;8.40;;
17604;SDS011;8921;50.964;6.800;2023-04-07T14:19:02;14.87;;;8.80;;
17604;SDS011;8921;50.964;6.800;2023-04-07T14:21:30;20.30;;;9.37;;
17604;SDS011;8921;50.964;6.800;2023-04-07T14:23:58;15.00;;;8.40;;
17604;SDS011;8921;50.964;6.800;2023-04-07T14:26:27;18.63;;;7.70;;
17604;SDS011;8921;50.964;6.800;2023-04-07T14:28:55;21.23;;;9.20;;
17604;SDS011;8921;50.964;6.800;2023-04-07T14:31:23;18.70;;;8.80;;
17604;SDS011;8921;50.964;6.800;2023-04-07T14:33:51;17.50;;;10.30;;
17604;SDS011;8921;50.964;6.800;2023-04-07T14:36:20;14.70;;;8.33;;
17604;SDS011;8921;50.964;6.800;2023-04-07T14:38:48;11.87;;;7.00;;
17604;SDS011;8921;50.964;6.800;2023-04-07T14:41:16;11.33;;;7.10;;
17604;SDS011;8921;50.964;6.800;2023-04-07T14:43:45;14.93;;;8.33;;
17604;SDS011;8921;50.964;6.800;2023-04-07T14:46:13;13.97;;;7.70;;
17604;SDS011;8921;50.964;6.800;2023-04-07T14:48:41;12.77;;;7.60;;
17604;SDS011;8921;50.964;6.800;2023-04-07T14:51:10;15.70;;;8.10;;
17604;SDS011;8921;50.964;6.800;2023-04-07T14:53:39;15.17;;;8.30;;
17604;SDS011;8921;50.964;6.800;2023-04-07T14:56:09;14.83;;;8.70;;
17604;SDS011;8921;50.964;6.800;2023-04-07T14:58:37;13.73;;;8.30;;
17604;SDS011;8921;50.964;6.800;2023-04-07T15:01:06;18.20;;;8.10;;
17604;SDS011;8921;50.964;6.800;2023-04-07T15:03:34;12.07;;;7.00;;
17604;SDS011;8921;50.964;6.800;2023-04-07T15:06:05;10.13;;;7.20;;
17604;SDS011;8921;50.964;6.800;2023-04-07T15:08:33;13.50;;;7.37;;
17604;SDS011;8921;50.964;6.800;2023-04-07T15:11:07;11.10;;;7.03;;
17604;SDS011;8921;50.964;6.800;2023-04-07T15:13:35;15.13;;;8.07;;
17604;SDS011;8921;50.964;6.800;2023-04-07T15:16:04;12.70;;;5.97;;
17604;SDS011;8921;50.964;6.800;2023-04-07T15:18:36;18.23;;;8.17;;
17604;SDS011;8921;50.964;6.800;2023-04-07T15:21:03;12.40;;;7.73;;